createdAt,value
2022-08-27T00:01:34.174Z,21.35
2022-08-27T00:04:01.093Z,21.32
2022-08-27T00:06:27.914Z,21.30
2022-08-27T00:08:54.674Z,21.27
2022-08-27T00:11:22.375Z,21.26
2022-08-27T00:13:49.186Z,21.25
2022-08-27T00:16:16.365Z,21.22
2022-08-27T00:18:44.259Z,21.21
2022-08-27T00:21:15.389Z,21.19
2022-08-27T00:23:42.309Z,21.17
2022-08-27T00:26:09.254Z,21.16
2022-08-27T00:28:36.185Z,21.15
2022-08-27T00:31:03.091Z,21.14
2022-08-27T00:33:30.705Z,21.13
2022-08-27T00:35:57.586Z,21.12
2022-08-27T00:38:24.455Z,21.11
2022-08-27T00:40:51.485Z,21.09
2022-08-27T00:43:45.769Z,21.08
2022-08-27T00:46:21.331Z,21.07
2022-08-27T00:48:48.900Z,21.07
2022-08-27T00:51:15.735Z,21.05
2022-08-27T00:54:02.630Z,21.05
2022-08-27T00:56:33.174Z,21.04
2022-08-27T00:59:01.592Z,21.04
2022-08-27T01:01:29.950Z,21.04
2022-08-27T01:04:03.279Z,21.03
2022-08-27T01:06:32.872Z,21.04
2022-08-27T01:09:06.076Z,21.05
2022-08-27T01:11:33.345Z,21.05
2022-08-27T01:14:01.448Z,21.06
2022-08-27T01:16:32.041Z,21.07
2022-08-27T01:18:58.868Z,21.06
2022-08-27T01:21:28.399Z,21.06
2022-08-27T01:24:07.474Z,21.05
2022-08-27T01:26:34.322Z,21.04
2022-08-27T01:29:01.102Z,21.03
2022-08-27T01:31:29.412Z,21.01
2022-08-27T01:33:57.037Z,20.98
2022-08-27T01:36:24.261Z,20.97
2022-08-27T01:38:51.085Z,20.94
2022-08-27T01:41:18.522Z,20.90
2022-08-27T01:43:47.043Z,20.87
2022-08-27T01:46:14.096Z,20.84
2022-08-27T01:48:42.558Z,20.82
2022-08-27T01:51:10.017Z,20.79
2022-08-27T01:53:36.886Z,20.78
2022-08-27T01:56:04.424Z,20.76
2022-08-27T01:58:32.094Z,20.75
2022-08-27T02:01:05.490Z,20.73
2022-08-27T02:03:32.540Z,20.70
2022-08-27T02:06:00.018Z,20.68
2022-08-27T02:08:26.890Z,20.66
2022-08-27T02:10:53.674Z,20.64
2022-08-27T02:13:20.478Z,20.61
2022-08-27T02:15:47.495Z,20.58
2022-08-27T02:18:15.045Z,20.56
2022-08-27T02:20:43.973Z,20.54
2022-08-27T02:23:10.831Z,20.52
2022-08-27T02:25:37.750Z,20.51
2022-08-27T02:28:05.238Z,20.49
2022-08-27T02:30:32.323Z,20.48
2022-08-27T02:33:01.079Z,20.47
2022-08-27T02:35:28.174Z,20.45
2022-08-27T02:37:54.943Z,20.45
2022-08-27T02:40:23.369Z,20.44
2022-08-27T02:42:50.281Z,20.43
2022-08-27T02:45:17.431Z,20.42
2022-08-27T02:47:44.266Z,20.40
2022-08-27T02:50:11.339Z,20.39
2022-08-27T02:52:38.166Z,20.38
2022-08-27T02:55:05.847Z,20.37
2022-08-27T02:57:36.681Z,20.37
2022-08-27T03:00:12.244Z,20.35
2022-08-27T03:02:39.287Z,20.34
2022-08-27T03:05:07.557Z,20.34
2022-08-27T03:07:34.430Z,20.34
2022-08-27T03:10:01.209Z,20.34
2022-08-27T03:12:28.167Z,20.34
2022-08-27T03:14:54.994Z,20.36
2022-08-27T03:17:40.414Z,20.36
2022-08-27T03:20:08.682Z,20.36
2022-08-27T03:22:35.502Z,20.36
2022-08-27T03:25:03.265Z,20.36
2022-08-27T03:27:30.087Z,20.37
2022-08-27T03:29:59.659Z,20.38
2022-08-27T03:32:29.988Z,20.39
2022-08-27T03:34:58.632Z,20.40
2022-08-27T03:37:25.775Z,20.41
2022-08-27T03:39:52.649Z,20.41
2022-08-27T03:42:19.473Z,20.41
2022-08-27T03:44:46.306Z,20.41
2022-08-27T03:47:13.190Z,20.41
2022-08-27T03:49:40.073Z,20.41
2022-08-27T03:52:07.002Z,20.43
2022-08-27T03:54:37.862Z,20.43
2022-08-27T03:57:05.094Z,20.44
2022-08-27T03:59:32.040Z,20.44
2022-08-27T04:01:58.934Z,20.44
2022-08-27T04:04:25.961Z,20.44
2022-08-27T04:06:52.807Z,20.45
2022-08-27T04:09:19.713Z,20.45
2022-08-27T04:11:46.554Z,20.45
2022-08-27T04:14:24.887Z,20.46
2022-08-27T04:16:56.273Z,20.46
2022-08-27T04:19:27.722Z,20.47
2022-08-27T04:21:59.101Z,20.48
2022-08-27T04:24:25.965Z,20.49
2022-08-27T04:26:52.749Z,20.50
2022-08-27T04:29:19.571Z,20.52
2022-08-27T04:31:46.632Z,20.53
2022-08-27T04:34:13.491Z,20.54
2022-08-27T04:36:40.301Z,20.56
2022-08-27T04:39:07.065Z,20.57
2022-08-27T04:41:34.360Z,20.60
2022-08-27T04:44:06.351Z,20.63
2022-08-27T04:46:37.785Z,20.65
2022-08-27T04:49:10.242Z,20.68
2022-08-27T04:51:38.043Z,20.72
2022-08-27T04:54:07.117Z,20.76
2022-08-27T04:56:34.169Z,20.79
2022-08-27T04:59:03.695Z,20.81
2022-08-27T05:01:30.853Z,20.84
2022-08-27T05:03:58.776Z,20.86
2022-08-27T05:06:25.660Z,20.89
2022-08-27T05:08:52.656Z,20.88
2022-08-27T05:11:20.831Z,20.90
2022-08-27T05:13:47.719Z,20.91
2022-08-27T05:16:16.661Z,20.92
2022-08-27T05:18:48.434Z,20.92
2022-08-27T05:21:20.618Z,20.91
2022-08-27T05:23:47.762Z,20.92
2022-08-27T05:26:15.132Z,20.94
2022-08-27T05:28:41.964Z,20.97
2022-08-27T05:31:10.095Z,21.00
2022-08-27T05:33:38.549Z,21.03
2022-08-27T05:36:05.837Z,21.08
2022-08-27T05:38:32.841Z,21.10
2022-08-27T05:41:09.036Z,21.14
2022-08-27T05:43:40.166Z,21.18
2022-08-27T05:46:10.096Z,21.22
2022-08-27T05:48:36.986Z,21.24
2022-08-27T05:51:09.358Z,21.26
2022-08-27T05:53:36.333Z,21.27
2022-08-27T05:56:03.560Z,21.28
2022-08-27T05:58:49.271Z,21.29
2022-08-27T06:01:17.450Z,21.30
2022-08-27T06:03:46.315Z,21.29
2022-08-27T06:06:13.134Z,21.31
2022-08-27T06:08:40.041Z,21.32
2022-08-27T06:11:07.232Z,21.32
2022-08-27T06:13:34.474Z,21.32
2022-08-27T06:16:08.308Z,21.31
2022-08-27T06:18:35.806Z,21.31
2022-08-27T06:21:02.822Z,21.31
2022-08-27T06:23:29.647Z,21.30
2022-08-27T06:25:57.229Z,21.28
2022-08-27T06:28:25.229Z,21.27
2022-08-27T06:30:52.037Z,21.26
2022-08-27T06:33:21.254Z,21.26
2022-08-27T06:35:48.065Z,21.26
2022-08-27T06:38:14.874Z,21.26
2022-08-27T06:40:42.198Z,21.26
2022-08-27T06:43:09.081Z,21.26
2022-08-27T06:45:39.637Z,21.26
2022-08-27T06:48:06.426Z,21.28
2022-08-27T06:50:42.472Z,21.29
2022-08-27T06:53:09.267Z,21.32
2022-08-27T06:55:43.223Z,21.35
2022-08-27T06:58:10.368Z,21.39
2022-08-27T07:00:37.203Z,21.42
2022-08-27T07:03:05.608Z,21.47
2022-08-27T07:05:33.653Z,21.51
2022-08-27T07:08:00.704Z,21.57
2022-08-27T07:10:27.811Z,21.63
2022-08-27T07:12:54.753Z,21.69
2022-08-27T07:15:24.836Z,21.75
2022-08-27T07:17:53.988Z,21.81
2022-08-27T07:20:21.369Z,21.86
2022-08-27T07:22:50.354Z,21.91
2022-08-27T07:25:21.488Z,21.96
2022-08-27T07:27:48.600Z,22.00
2022-08-27T07:30:16.122Z,22.05
2022-08-27T07:32:46.228Z,22.09
2022-08-27T07:35:13.213Z,22.13
2022-08-27T07:37:40.607Z,22.16
2022-08-27T07:40:13.034Z,22.20
2022-08-27T07:43:00.034Z,22.26
2022-08-27T07:45:27.438Z,22.33
2022-08-27T07:47:54.419Z,22.40
2022-08-27T07:50:21.671Z,22.47
2022-08-27T07:52:50.606Z,22.55
2022-08-27T07:55:17.692Z,22.65
2022-08-27T07:57:45.554Z,22.75
2022-08-27T08:00:13.179Z,22.86
2022-08-27T08:02:42.111Z,22.96
2022-08-27T08:05:10.178Z,23.09
2022-08-27T08:07:38.596Z,23.22
2022-08-27T08:10:06.984Z,23.36
2022-08-27T08:12:38.221Z,23.48
2022-08-27T08:15:06.615Z,23.60
2022-08-27T08:17:36.925Z,23.70
2022-08-27T08:20:31.256Z,23.77
2022-08-27T08:22:51.386Z,23.82
2022-08-27T08:25:18.343Z,23.86
2022-08-27T08:27:45.250Z,23.87
2022-08-27T08:30:12.263Z,23.88
2022-08-27T08:32:39.120Z,23.89
2022-08-27T08:35:06.506Z,23.91
2022-08-27T08:37:33.397Z,23.92
2022-08-27T08:40:00.311Z,23.93
2022-08-27T08:42:37.379Z,23.95
2022-08-27T08:45:05.140Z,23.96
2022-08-27T08:47:39.013Z,23.99
2022-08-27T08:50:09.990Z,24.01
2022-08-27T08:53:10.938Z,24.02
2022-08-27T08:55:47.781Z,24.06
2022-08-27T08:58:27.387Z,24.08
2022-08-27T09:01:01.664Z,24.12
2022-08-27T09:03:28.801Z,24.15
2022-08-27T09:06:04.268Z,24.19
2022-08-27T09:08:41.082Z,24.26
2022-08-27T09:11:33.855Z,24.35
2022-08-27T09:14:13.213Z,24.50
2022-08-27T09:16:40.596Z,24.69
2022-08-27T09:19:07.514Z,24.86
2022-08-27T09:21:42.937Z,25.00
2022-08-27T09:24:35.533Z,25.13
2022-08-27T09:27:02.411Z,25.23
2022-08-27T09:29:29.572Z,25.33
2022-08-27T09:32:06.845Z,25.43
2022-08-27T09:34:36.024Z,25.54
2022-08-27T09:37:15.781Z,25.70
2022-08-27T09:39:48.755Z,25.88
2022-08-27T09:42:35.610Z,26.06
2022-08-27T09:45:02.478Z,26.26
2022-08-27T09:47:29.389Z,26.43
2022-08-27T09:50:07.369Z,26.60
2022-08-27T09:52:55.670Z,26.78
2022-08-27T09:55:43.686Z,26.96
2022-08-27T09:58:28.767Z,27.09
2022-08-27T10:01:06.842Z,27.17
2022-08-27T10:03:33.828Z,27.23
2022-08-27T10:06:00.967Z,27.31
2022-08-27T10:08:42.317Z,27.38
2022-08-27T10:11:26.155Z,27.50
2022-08-27T10:13:57.444Z,27.61
2022-08-27T10:16:33.617Z,27.69
2022-08-27T10:19:36.061Z,27.77
2022-08-27T10:22:31.965Z,27.83
2022-08-27T10:25:19.765Z,27.90
2022-08-27T10:28:17.198Z,27.99
2022-08-27T10:32:05.477Z,28.08
2022-08-27T10:34:35.058Z,28.11
2022-08-27T10:37:23.580Z,28.12
2022-08-27T10:40:02.820Z,28.10
2022-08-27T10:42:34.572Z,28.10
2022-08-27T10:45:56.161Z,28.12
2022-08-27T10:48:31.128Z,28.20
2022-08-27T10:51:08.688Z,28.22
2022-08-27T10:53:44.549Z,28.21
2022-08-27T10:56:31.248Z,28.19
2022-08-27T10:59:13.447Z,28.13
2022-08-27T11:01:46.794Z,28.06
2022-08-27T11:04:20.585Z,27.99
2022-08-27T11:07:03.193Z,27.92
2022-08-27T11:09:37.257Z,27.87
2022-08-27T11:12:15.264Z,27.83
2022-08-27T11:15:00.541Z,27.80
2022-08-27T11:17:56.492Z,27.78
2022-08-27T11:20:32.416Z,27.77
2022-08-27T11:23:06.040Z,27.78
2022-08-27T11:25:53.048Z,27.78
2022-08-27T11:28:30.196Z,27.79
2022-08-27T11:31:06.276Z,27.81
2022-08-27T11:33:57.573Z,27.84
2022-08-27T11:36:25.158Z,27.89
2022-08-27T11:39:36.895Z,27.92
2022-08-27T11:42:16.186Z,27.96
2022-08-27T11:44:44.256Z,27.98
2022-08-27T11:47:13.076Z,28.01
2022-08-27T11:50:01.308Z,28.04
2022-08-27T11:52:29.357Z,28.08
2022-08-27T11:55:08.930Z,28.12
2022-08-27T11:57:38.624Z,28.19
2022-08-27T12:00:17.672Z,28.27
2022-08-27T12:02:44.720Z,28.35
2022-08-27T12:05:33.209Z,28.41
2022-08-27T12:08:01.129Z,28.48
2022-08-27T12:10:49.481Z,28.55
2022-08-27T12:13:38.640Z,28.62
2022-08-27T12:16:40.882Z,28.66
2022-08-27T12:19:18.691Z,28.70
2022-08-27T12:22:03.930Z,28.72
2022-08-27T12:24:41.538Z,28.72
2022-08-27T12:27:26.569Z,28.72
2022-08-27T12:29:54.220Z,28.71
2022-08-27T12:32:30.399Z,28.71
2022-08-27T12:34:59.669Z,28.71
2022-08-27T12:37:29.136Z,28.71
2022-08-27T12:39:58.928Z,28.73
2022-08-27T12:42:25.821Z,28.77
2022-08-27T12:44:56.515Z,28.79
2022-08-27T12:47:23.443Z,28.81
2022-08-27T12:49:58.035Z,28.81
2022-08-27T12:53:02.204Z,28.81
2022-08-27T12:55:50.731Z,28.84
2022-08-27T12:58:30.150Z,28.87
2022-08-27T13:01:34.439Z,28.92
2022-08-27T13:04:05.454Z,29.01
2022-08-27T13:06:34.757Z,29.05
2022-08-27T13:09:06.623Z,29.08
2022-08-27T13:11:56.774Z,29.11
2022-08-27T13:14:24.904Z,29.13
2022-08-27T13:16:59.323Z,29.17
2022-08-27T13:19:32.927Z,29.20
2022-08-27T13:22:01.559Z,29.22
2022-08-27T13:24:33.984Z,29.25
2022-08-27T13:27:02.834Z,29.26
2022-08-27T13:29:29.737Z,29.26
2022-08-27T13:31:56.585Z,29.27
2022-08-27T13:34:25.695Z,29.29
2022-08-27T13:37:02.478Z,29.27
2022-08-27T13:39:29.279Z,29.25
2022-08-27T13:41:58.823Z,29.22
2022-08-27T13:44:32.242Z,29.18
2022-08-27T13:47:07.357Z,29.14
2022-08-27T13:49:36.721Z,29.14
2022-08-27T13:52:09.860Z,29.13
2022-08-27T13:54:36.672Z,29.13
2022-08-27T13:57:08.483Z,29.13
2022-08-27T13:59:41.619Z,29.11
2022-08-27T14:02:10.030Z,29.08
2022-08-27T14:04:40.033Z,29.04
2022-08-27T14:07:13.743Z,29.01
2022-08-27T14:09:55.192Z,28.96
2022-08-27T14:12:32.893Z,28.93
2022-08-27T14:15:25.806Z,28.90
2022-08-27T14:17:52.598Z,28.86
2022-08-27T14:20:19.759Z,28.81
2022-08-27T14:22:47.206Z,28.75
2022-08-27T14:25:14.804Z,28.68
2022-08-27T14:27:41.976Z,28.62
2022-08-27T14:30:20.545Z,28.55
2022-08-27T14:32:55.666Z,28.48
2022-08-27T14:35:31.089Z,28.43
2022-08-27T14:37:58.581Z,28.39
2022-08-27T14:40:25.513Z,28.36
2022-08-27T14:42:53.189Z,28.32
2022-08-27T14:45:20.888Z,28.29
2022-08-27T14:47:47.689Z,28.25
2022-08-27T14:50:14.474Z,28.23
2022-08-27T14:52:41.339Z,28.21
2022-08-27T14:55:10.833Z,28.19
2022-08-27T14:57:38.299Z,28.16
2022-08-27T15:00:06.269Z,28.15
2022-08-27T15:02:33.043Z,28.13
2022-08-27T15:05:00.273Z,28.12
2022-08-27T15:07:27.195Z,28.09
2022-08-27T15:09:56.432Z,28.06
2022-08-27T15:12:26.324Z,28.01
2022-08-27T15:14:53.670Z,27.97
2022-08-27T15:17:35.195Z,27.93
2022-08-27T15:20:04.955Z,27.87
2022-08-27T15:22:33.895Z,27.82
2022-08-27T15:25:00.722Z,27.77
2022-08-27T15:27:38.445Z,27.73
2022-08-27T15:30:07.148Z,27.67
2022-08-27T15:32:35.890Z,27.63
2022-08-27T15:35:05.270Z,27.59
2022-08-27T15:37:32.103Z,27.56
2022-08-27T15:39:59.026Z,27.53
2022-08-27T15:42:25.982Z,27.48
2022-08-27T15:44:53.994Z,27.42
2022-08-27T15:47:21.197Z,27.36
2022-08-27T15:49:48.009Z,27.30
2022-08-27T15:52:16.779Z,27.23
2022-08-27T15:54:48.502Z,27.15
2022-08-27T15:57:15.307Z,27.08
2022-08-27T15:59:42.055Z,27.02
2022-08-27T16:02:16.419Z,26.96
2022-08-27T16:04:43.548Z,26.90
2022-08-27T16:07:16.201Z,26.83
2022-08-27T16:09:47.096Z,26.77
2022-08-27T16:12:26.767Z,26.72
2022-08-27T16:14:55.495Z,26.69
2022-08-27T16:17:23.094Z,26.65
2022-08-27T16:19:49.830Z,26.62
2022-08-27T16:22:16.627Z,26.56
2022-08-27T16:24:43.622Z,26.51
2022-08-27T16:27:10.685Z,26.46
2022-08-27T16:29:37.619Z,26.41
2022-08-27T16:32:04.425Z,26.36
2022-08-27T16:34:32.307Z,26.31
2022-08-27T16:37:00.212Z,26.26
2022-08-27T16:39:31.753Z,26.20
2022-08-27T16:42:00.008Z,26.15
2022-08-27T16:44:26.816Z,26.09
2022-08-27T16:46:53.618Z,26.05
2022-08-27T16:49:55.923Z,26.00
2022-08-27T16:52:23.588Z,25.93
2022-08-27T16:54:51.420Z,25.88
2022-08-27T16:57:18.260Z,25.81
2022-08-27T16:59:45.433Z,25.75
2022-08-27T17:02:18.806Z,25.70
2022-08-27T17:04:49.297Z,25.64
2022-08-27T17:07:28.111Z,25.57
2022-08-27T17:09:55.767Z,25.50
2022-08-27T17:12:25.272Z,25.46
2022-08-27T17:14:52.876Z,25.41
2022-08-27T17:17:19.639Z,25.37
2022-08-27T17:19:46.441Z,25.33
2022-08-27T17:22:14.055Z,25.28
2022-08-27T17:24:40.790Z,25.24
2022-08-27T17:27:07.584Z,25.20
2022-08-27T17:29:34.498Z,25.17
2022-08-27T17:32:01.257Z,25.11
2022-08-27T17:34:28.729Z,25.07
2022-08-27T17:36:55.533Z,25.02
2022-08-27T17:39:22.615Z,24.98
2022-08-27T17:41:50.411Z,24.92
2022-08-27T17:44:24.321Z,24.85
2022-08-27T17:46:52.045Z,24.76
2022-08-27T17:49:18.999Z,24.67
2022-08-27T17:51:46.103Z,24.59
2022-08-27T17:54:41.255Z,24.54
2022-08-27T17:57:18.527Z,24.49
2022-08-27T17:59:45.522Z,24.45
2022-08-27T18:02:16.581Z,24.41
2022-08-27T18:04:43.368Z,24.39
2022-08-27T18:07:10.145Z,24.37
2022-08-27T18:09:36.979Z,24.32
2022-08-27T18:12:05.110Z,24.26
2022-08-27T18:14:31.853Z,24.22
2022-08-27T18:16:58.695Z,24.18
2022-08-27T18:19:26.659Z,24.11
2022-08-27T18:21:53.632Z,23.98
2022-08-27T18:24:20.411Z,23.86
2022-08-27T18:26:47.646Z,23.75
2022-08-27T18:29:14.463Z,23.65
2022-08-27T18:31:41.356Z,23.58
2022-08-27T18:34:08.086Z,23.47
2022-08-27T18:36:34.804Z,23.32
2022-08-27T18:39:02.122Z,23.17
2022-08-27T18:41:29.876Z,23.01
2022-08-27T18:43:56.946Z,22.82
2022-08-27T18:46:23.702Z,22.68
2022-08-27T18:48:50.503Z,22.52
2022-08-27T18:51:19.661Z,22.41
2022-08-27T18:53:47.137Z,22.32
2022-08-27T18:56:16.604Z,22.22
2022-08-27T18:58:43.704Z,22.12
2022-08-27T19:01:28.999Z,22.03
2022-08-27T19:03:55.931Z,21.91
2022-08-27T19:06:23.286Z,21.83
2022-08-27T19:08:50.275Z,21.77
2022-08-27T19:11:17.123Z,21.74
2022-08-27T19:13:43.963Z,21.74
2022-08-27T19:16:46.847Z,21.75
2022-08-27T19:19:14.400Z,21.76
2022-08-27T19:21:41.389Z,21.76
2022-08-27T19:24:08.524Z,21.78
2022-08-27T19:26:35.474Z,21.79
2022-08-27T19:29:02.289Z,21.79
2022-08-27T19:31:29.579Z,21.76
2022-08-27T19:33:56.496Z,21.73
2022-08-27T19:36:23.561Z,21.71
2022-08-27T19:38:53.920Z,21.69
2022-08-27T19:41:24.778Z,21.65
2022-08-27T19:43:54.300Z,21.59
2022-08-27T19:46:21.663Z,21.55
2022-08-27T19:48:48.528Z,21.49
2022-08-27T19:51:15.303Z,21.44
2022-08-27T19:53:42.223Z,21.39
2022-08-27T19:56:09.250Z,21.32
2022-08-27T19:58:36.220Z,21.27
2022-08-27T20:01:03.170Z,21.18
2022-08-27T20:03:29.971Z,21.10
2022-08-27T20:05:56.722Z,21.02
2022-08-27T20:08:23.479Z,20.97
2022-08-27T20:10:50.316Z,20.90
2022-08-27T20:13:17.071Z,20.83
2022-08-27T20:15:43.917Z,20.77
2022-08-27T20:18:13.513Z,20.73
2022-08-27T20:20:40.434Z,20.70
2022-08-27T20:23:07.487Z,20.65
2022-08-27T20:25:34.422Z,20.61
2022-08-27T20:28:12.458Z,20.57
2022-08-27T20:30:48.722Z,20.51
2022-08-27T20:33:16.758Z,20.44
2022-08-27T20:35:44.039Z,20.36
2022-08-27T20:38:10.931Z,20.30
2022-08-27T20:40:37.842Z,20.27
2022-08-27T20:43:04.694Z,20.26
2022-08-27T20:45:31.585Z,20.26
2022-08-27T20:47:59.160Z,20.27
2022-08-27T20:50:25.969Z,20.25
2022-08-27T20:52:52.798Z,20.23
2022-08-27T20:55:26.322Z,20.24
2022-08-27T20:58:11.800Z,20.29
2022-08-27T21:00:42.491Z,20.34
2022-08-27T21:03:09.957Z,20.33
2022-08-27T21:05:55.505Z,20.35
2022-08-27T21:08:22.982Z,20.35
2022-08-27T21:10:51.644Z,20.32
2022-08-27T21:13:18.740Z,20.31
2022-08-27T21:15:45.539Z,20.26
2022-08-27T21:18:12.942Z,20.21
2022-08-27T21:20:39.890Z,20.16
2022-08-27T21:23:06.692Z,20.05
2022-08-27T21:25:35.119Z,19.96
2022-08-27T21:28:03.706Z,19.89
2022-08-27T21:30:30.688Z,19.82
2022-08-27T21:32:57.502Z,19.74
2022-08-27T21:35:27.379Z,19.68
2022-08-27T21:37:54.915Z,19.63
2022-08-27T21:40:21.771Z,19.58
2022-08-27T21:42:49.281Z,19.53
2022-08-27T21:45:16.088Z,19.48
2022-08-27T21:47:47.087Z,19.44
2022-08-27T21:50:13.859Z,19.40
2022-08-27T21:52:40.590Z,19.38
2022-08-27T21:55:07.770Z,19.33
2022-08-27T21:57:34.639Z,19.30
2022-08-27T22:00:08.129Z,19.29
2022-08-27T22:02:40.673Z,19.26
2022-08-27T22:05:08.851Z,19.24
2022-08-27T22:07:35.798Z,19.24
2022-08-27T22:10:02.638Z,19.24
2022-08-27T22:12:29.374Z,19.24
2022-08-27T22:14:56.153Z,19.24
2022-08-27T22:17:22.951Z,19.25
2022-08-27T22:19:49.710Z,19.28
2022-08-27T22:22:16.465Z,19.30
2022-08-27T22:24:43.189Z,19.33
2022-08-27T22:27:10.035Z,19.35
2022-08-27T22:29:36.790Z,19.36
2022-08-27T22:32:03.990Z,19.37
2022-08-27T22:34:30.745Z,19.38
2022-08-27T22:36:57.476Z,19.39
2022-08-27T22:39:24.240Z,19.40
2022-08-27T22:41:52.006Z,19.41
2022-08-27T22:44:19.101Z,19.44
2022-08-27T22:48:53.360Z,19.60
2022-08-27T22:51:20.521Z,19.66
2022-08-27T22:53:47.321Z,19.74
2022-08-27T22:56:14.309Z,19.81
2022-08-27T22:58:45.895Z,19.87
2022-08-27T23:01:18.029Z,19.91
2022-08-27T23:03:44.926Z,19.95
2022-08-27T23:06:11.923Z,19.97
2022-08-27T23:08:38.715Z,20.00
2022-08-27T23:11:05.638Z,20.03
2022-08-27T23:13:32.657Z,20.06
2022-08-27T23:16:00.361Z,20.09
2022-08-27T23:18:27.371Z,20.11
2022-08-27T23:20:54.159Z,20.13
2022-08-27T23:23:21.074Z,20.17
2022-08-27T23:26:06.501Z,20.20
2022-08-27T23:28:33.207Z,20.24
2022-08-27T23:31:00.028Z,20.26
2022-08-27T23:33:26.770Z,20.28
2022-08-27T23:35:53.556Z,20.27
2022-08-27T23:38:20.792Z,20.26
2022-08-27T23:40:48.237Z,20.23
2022-08-27T23:43:15.179Z,20.20
2022-08-27T23:45:43.215Z,20.17
2022-08-27T23:48:10.720Z,20.14
2022-08-27T23:50:37.778Z,20.13
2022-08-27T23:53:05.112Z,20.13
2022-08-27T23:55:33.487Z,20.15
2022-08-27T23:58:01.412Z,20.18
